createdAt,value
2022-11-05T00:00:51.827Z,20.23
2022-11-05T00:03:56.383Z,20.52
2022-11-05T00:07:01.732Z,20.20
2022-11-05T00:12:53.213Z,18.60
2022-11-05T00:15:58.354Z,17.40
2022-11-05T00:18:44.397Z,18.90
2022-11-05T00:21:48.725Z,15.57
2022-11-05T00:24:53.421Z,19.05
2022-11-05T00:27:41.105Z,14.00
2022-11-05T00:30:27.998Z,16.45
2022-11-05T00:33:15.315Z,16.40
2022-11-05T00:36:07.241Z,16.98
2022-11-05T00:38:53.394Z,15.15
2022-11-05T00:41:39.470Z,19.73
2022-11-05T00:44:46.466Z,20.40
2022-11-05T00:47:52.161Z,16.85
2022-11-05T00:50:38.342Z,13.63
2022-11-05T00:53:24.524Z,15.98
2022-11-05T00:56:11.268Z,14.65
2022-11-05T00:58:57.522Z,14.52
2022-11-05T01:01:44.167Z,15.93
2022-11-05T01:04:30.594Z,13.43
2022-11-05T01:07:19.847Z,18.63
2022-11-05T01:10:06.624Z,14.77
2022-11-05T01:12:53.034Z,16.52
2022-11-05T01:15:40.119Z,12.73
2022-11-05T01:18:26.157Z,14.13
2022-11-05T01:21:15.866Z,16.88
2022-11-05T01:24:02.421Z,13.52
2022-11-05T01:26:48.498Z,13.73
2022-11-05T01:29:35.193Z,14.18
2022-11-05T01:32:21.541Z,14.95
2022-11-05T01:35:10.275Z,15.57
2022-11-05T01:37:56.086Z,12.15
2022-11-05T01:40:43.016Z,16.83
2022-11-05T01:43:55.182Z,9.90
2022-11-05T01:46:45.839Z,15.65
2022-11-05T01:49:34.052Z,18.33
2022-11-05T01:52:21.609Z,16.98
2022-11-05T01:55:11.871Z,12.90
2022-11-05T01:58:00.172Z,9.13
2022-11-05T02:00:46.874Z,15.07
2022-11-05T02:03:33.337Z,10.93
2022-11-05T02:06:21.114Z,8.77
2022-11-05T02:09:12.806Z,13.13
2022-11-05T02:11:59.080Z,11.48
2022-11-05T02:14:45.075Z,9.32
2022-11-05T02:18:06.279Z,10.18
2022-11-05T02:21:24.819Z,7.63
2022-11-05T02:24:32.402Z,12.32
2022-11-05T02:27:56.761Z,9.48
2022-11-05T02:30:53.136Z,8.35
2022-11-05T02:33:56.727Z,10.18
2022-11-05T02:36:48.452Z,10.55
2022-11-05T02:39:49.794Z,8.10
2022-11-05T02:43:16.090Z,7.85
2022-11-05T02:46:11.055Z,5.63
2022-11-05T02:49:09.032Z,7.53
2022-11-05T02:52:01.721Z,8.27
2022-11-05T02:54:58.424Z,6.35
2022-11-05T02:57:47.361Z,6.95
2022-11-05T03:00:40.454Z,7.70
2022-11-05T03:03:27.965Z,10.27
2022-11-05T03:06:27.618Z,7.53
2022-11-05T03:09:51.267Z,6.30
2022-11-05T03:12:47.790Z,6.22
2022-11-05T03:15:50.943Z,8.75
2022-11-05T03:18:47.806Z,8.32
2022-11-05T03:21:47.646Z,7.53
2022-11-05T03:24:39.520Z,12.00
2022-11-05T03:27:31.779Z,8.30
2022-11-05T03:30:18.905Z,6.85
2022-11-05T03:33:10.988Z,8.07
2022-11-05T03:36:01.584Z,8.85
2022-11-05T03:38:51.752Z,10.32
2022-11-05T03:41:43.204Z,9.60
2022-11-05T03:44:34.310Z,9.93
2022-11-05T03:47:25.662Z,9.68
2022-11-05T03:50:20.847Z,10.75
2022-11-05T03:53:32.168Z,10.23
2022-11-05T03:56:28.918Z,9.52
2022-11-05T03:59:15.967Z,9.45
2022-11-05T04:02:03.172Z,10.93
2022-11-05T04:04:49.904Z,7.90
2022-11-05T04:07:54.632Z,15.65
2022-11-05T04:10:58.967Z,8.75
2022-11-05T04:13:44.806Z,8.15
2022-11-05T04:16:49.166Z,8.18
2022-11-05T04:22:58.563Z,7.15
2022-11-05T04:25:44.642Z,13.48
2022-11-05T04:28:50.464Z,8.48
2022-11-05T04:31:36.946Z,7.55
2022-11-05T04:34:23.480Z,7.85
2022-11-05T04:37:09.237Z,7.90
2022-11-05T04:39:55.211Z,10.30
2022-11-05T04:42:41.310Z,11.13
2022-11-05T04:45:29.959Z,6.30
2022-11-05T04:48:16.032Z,7.45
2022-11-05T04:51:02.680Z,15.05
2022-11-05T04:53:48.988Z,11.50
2022-11-05T04:56:35.246Z,7.78
2022-11-05T04:59:21.863Z,5.97
2022-11-05T05:02:07.943Z,7.57
2022-11-05T05:04:54.138Z,5.80
2022-11-05T05:07:41.483Z,6.28
2022-11-05T05:10:27.296Z,9.82
2022-11-05T05:13:13.374Z,7.18
2022-11-05T05:15:59.555Z,6.53
2022-11-05T05:18:46.510Z,7.03
2022-11-05T05:21:39.299Z,7.40
2022-11-05T05:24:34.614Z,9.48
2022-11-05T05:27:22.720Z,8.00
2022-11-05T05:30:09.605Z,10.18
2022-11-05T05:32:55.739Z,11.38
2022-11-05T05:35:41.614Z,7.30
2022-11-05T05:38:28.641Z,10.77
2022-11-05T05:41:15.463Z,9.48
2022-11-05T05:44:01.450Z,11.10
2022-11-05T05:46:47.495Z,9.90
2022-11-05T05:49:33.315Z,9.27
2022-11-05T05:52:19.487Z,7.68
2022-11-05T05:55:07.699Z,9.55
2022-11-05T05:57:54.676Z,11.95
2022-11-05T06:00:40.543Z,7.40
2022-11-05T06:03:26.383Z,9.77
2022-11-05T06:06:13.375Z,5.60
2022-11-05T06:08:59.864Z,6.88
2022-11-05T06:11:46.148Z,7.18
2022-11-05T06:14:33.990Z,10.63
2022-11-05T06:17:19.931Z,8.40
2022-11-05T06:20:07.667Z,6.88
2022-11-05T06:22:56.155Z,8.35
2022-11-05T06:25:42.486Z,7.65
2022-11-05T06:28:29.667Z,4.68
2022-11-05T06:31:16.009Z,8.05
2022-11-05T06:34:04.921Z,6.78
2022-11-05T06:36:51.004Z,6.28
2022-11-05T06:39:37.046Z,9.13
2022-11-05T06:42:24.953Z,6.15
2022-11-05T06:45:12.313Z,7.47
2022-11-05T06:47:59.593Z,10.50
2022-11-05T06:50:45.939Z,7.95
2022-11-05T06:53:32.025Z,5.90
2022-11-05T06:56:18.215Z,10.30
2022-11-05T06:59:04.318Z,6.75
2022-11-05T07:01:50.963Z,6.00
2022-11-05T07:04:37.311Z,3.20
2022-11-05T07:07:23.439Z,4.68
2022-11-05T07:10:13.467Z,5.88
2022-11-05T07:13:02.487Z,7.47
2022-11-05T07:15:52.599Z,5.50
2022-11-05T07:18:39.163Z,3.40
2022-11-05T07:21:25.354Z,6.28
2022-11-05T07:24:11.698Z,7.70
2022-11-05T07:26:58.266Z,6.00
2022-11-05T07:29:44.298Z,6.85
2022-11-05T07:32:31.562Z,5.53
2022-11-05T07:35:25.059Z,4.80
2022-11-05T07:38:11.792Z,12.50
2022-11-05T07:41:00.323Z,4.38
2022-11-05T07:43:46.833Z,4.03
2022-11-05T07:46:33.143Z,8.75
2022-11-05T07:49:19.158Z,6.40
2022-11-05T07:52:05.329Z,7.35
2022-11-05T07:54:51.106Z,7.28
2022-11-05T07:57:42.343Z,3.65
2022-11-05T08:00:30.423Z,7.03
2022-11-05T08:03:23.299Z,7.85
2022-11-05T08:06:09.694Z,9.23
2022-11-05T08:08:57.388Z,7.18
2022-11-05T08:11:43.381Z,5.82
2022-11-05T08:14:29.404Z,8.52
2022-11-05T08:17:18.624Z,7.47
2022-11-05T08:20:05.692Z,12.55
2022-11-05T08:22:52.410Z,8.00
2022-11-05T08:25:38.386Z,9.10
2022-11-05T08:28:26.590Z,4.57
2022-11-05T08:31:14.359Z,12.80
2022-11-05T08:34:04.231Z,10.88
2022-11-05T08:36:50.318Z,7.43
2022-11-05T08:39:36.405Z,7.90
2022-11-05T08:42:22.718Z,6.18
2022-11-05T08:45:09.225Z,14.30
2022-11-05T08:48:15.829Z,8.00
2022-11-05T08:51:01.868Z,5.82
2022-11-05T08:53:48.236Z,9.32
2022-11-05T08:56:34.869Z,9.85
2022-11-05T08:59:23.587Z,6.70
2022-11-05T09:02:13.245Z,9.75
2022-11-05T09:05:05.642Z,7.85
2022-11-05T09:07:55.281Z,6.70
2022-11-05T09:10:50.071Z,7.95
2022-11-05T09:13:39.466Z,8.65
2022-11-05T09:16:28.037Z,8.10
2022-11-05T09:19:13.964Z,8.88
2022-11-05T09:21:59.970Z,8.75
2022-11-05T09:24:46.422Z,8.75
2022-11-05T09:27:32.496Z,9.93
2022-11-05T09:30:18.654Z,7.03
2022-11-05T09:33:05.710Z,9.80
2022-11-05T09:35:52.843Z,7.72
2022-11-05T09:38:38.857Z,5.35
2022-11-05T09:41:31.257Z,6.80
2022-11-05T09:44:22.505Z,6.75
2022-11-05T09:47:15.670Z,9.82
2022-11-05T09:50:06.747Z,7.15
2022-11-05T09:52:52.634Z,8.10
2022-11-05T09:55:42.406Z,8.30
2022-11-05T09:58:51.749Z,5.75
2022-11-05T10:01:46.981Z,10.30
2022-11-05T10:04:34.246Z,8.02
2022-11-05T10:07:27.925Z,7.28
2022-11-05T10:10:41.359Z,6.18
2022-11-05T10:13:36.500Z,11.68
2022-11-05T10:16:52.151Z,9.77
2022-11-05T10:20:06.714Z,7.25
2022-11-05T10:22:58.675Z,7.05
2022-11-05T10:26:11.559Z,9.07
2022-11-05T10:29:03.413Z,4.63
2022-11-05T10:31:54.925Z,5.65
2022-11-05T10:34:41.802Z,9.20
2022-11-05T10:37:29.421Z,11.85
2022-11-05T10:40:15.589Z,8.13
2022-11-05T10:43:16.835Z,10.50
2022-11-05T10:46:48.627Z,6.60
2022-11-05T10:49:54.809Z,3.83
2022-11-05T10:52:54.855Z,5.53
2022-11-05T10:55:47.537Z,5.32
2022-11-05T10:58:35.445Z,4.28
2022-11-05T11:01:23.442Z,5.25
2022-11-05T11:04:20.360Z,6.10
2022-11-05T11:07:15.858Z,4.40
2022-11-05T11:10:02.870Z,6.70
2022-11-05T11:12:54.034Z,7.03
2022-11-05T11:15:40.138Z,6.88
2022-11-05T11:18:40.316Z,7.45
2022-11-05T11:21:33.255Z,9.45
2022-11-05T11:24:29.658Z,7.47
2022-11-05T11:27:29.080Z,9.57
2022-11-05T11:30:18.778Z,8.40
2022-11-05T11:33:09.368Z,8.68
2022-11-05T11:35:55.941Z,10.07
2022-11-05T11:38:43.041Z,7.00
2022-11-05T11:41:35.007Z,8.05
2022-11-05T11:44:27.150Z,6.60
2022-11-05T11:47:16.675Z,4.80
2022-11-05T11:50:03.073Z,8.60
2022-11-05T11:52:49.151Z,7.00
2022-11-05T11:55:35.131Z,6.80
2022-11-05T11:58:35.980Z,7.13
2022-11-05T12:01:44.107Z,7.13
2022-11-05T12:04:51.902Z,7.25
2022-11-05T12:07:37.986Z,5.90
2022-11-05T12:10:24.081Z,9.27
2022-11-05T12:13:20.656Z,10.07
2022-11-05T12:16:32.035Z,9.55
2022-11-05T12:19:31.984Z,12.35
2022-11-05T12:22:30.033Z,10.60
2022-11-05T12:25:26.700Z,9.27
2022-11-05T12:28:36.211Z,17.45
2022-11-05T12:31:37.617Z,6.70
2022-11-05T12:34:26.540Z,5.93
2022-11-05T12:37:19.984Z,9.18
2022-11-05T12:40:18.159Z,19.90
2022-11-05T12:43:32.855Z,10.02
2022-11-05T12:46:37.239Z,13.30
2022-11-05T12:49:50.237Z,9.60
2022-11-05T12:52:50.880Z,8.00
2022-11-05T12:55:44.107Z,8.02
2022-11-05T12:58:39.825Z,6.63
2022-11-05T13:01:39.926Z,13.18
2022-11-05T13:04:54.157Z,13.35
2022-11-05T13:07:49.257Z,13.73
2022-11-05T13:10:50.770Z,8.43
2022-11-05T13:13:42.377Z,8.63
2022-11-05T13:16:40.458Z,9.30
2022-11-05T13:19:45.408Z,16.25
2022-11-05T13:22:40.172Z,12.98
2022-11-05T13:25:29.722Z,14.38
2022-11-05T13:28:28.316Z,7.93
2022-11-05T13:31:23.603Z,14.23
2022-11-05T13:34:13.529Z,9.25
2022-11-05T13:37:22.721Z,11.85
2022-11-05T13:40:12.251Z,9.60
2022-11-05T13:43:01.331Z,9.38
2022-11-05T13:46:05.392Z,9.80
2022-11-05T13:49:25.903Z,8.50
2022-11-05T13:52:21.440Z,10.93
2022-11-05T13:55:26.384Z,10.95
2022-11-05T13:58:40.991Z,10.30
2022-11-05T14:01:30.494Z,10.05
2022-11-05T14:04:41.258Z,8.63
2022-11-05T14:07:33.715Z,7.88
2022-11-05T14:10:31.673Z,7.35
2022-11-05T14:13:26.439Z,12.57
2022-11-05T14:16:25.160Z,12.57
2022-11-05T14:19:32.774Z,9.43
2022-11-05T14:22:35.093Z,9.07
2022-11-05T14:25:22.203Z,9.45
2022-11-05T14:28:36.685Z,10.05
2022-11-05T14:32:02.721Z,9.68
2022-11-05T14:34:54.406Z,8.50
2022-11-05T14:37:41.274Z,16.40
2022-11-05T14:40:39.569Z,10.15
2022-11-05T14:43:27.942Z,19.13
2022-11-05T14:46:14.472Z,8.13
2022-11-05T14:49:09.176Z,13.00
2022-11-05T14:52:04.717Z,9.00
2022-11-05T14:54:54.239Z,8.52
2022-11-05T14:57:43.101Z,7.22
2022-11-05T15:00:28.878Z,16.95
2022-11-05T15:03:46.021Z,14.93
2022-11-05T15:06:35.805Z,10.30
2022-11-05T15:09:33.758Z,8.25
2022-11-05T15:12:24.769Z,10.05
2022-11-05T15:15:21.701Z,6.47
2022-11-05T15:18:30.379Z,5.57
2022-11-05T15:21:18.618Z,5.00
2022-11-05T15:24:05.899Z,9.35
2022-11-05T15:27:20.157Z,13.55
2022-11-05T15:30:19.237Z,7.30
2022-11-05T15:33:20.444Z,6.45
2022-11-05T15:36:27.359Z,15.38
2022-11-05T15:39:31.236Z,10.27
2022-11-05T15:42:22.334Z,10.07
2022-11-05T15:45:20.125Z,11.70
2022-11-05T15:48:20.145Z,7.70
2022-11-05T15:51:06.346Z,11.15
2022-11-05T15:54:23.978Z,7.45
2022-11-05T15:57:01.799Z,16.17
2022-11-05T15:59:48.415Z,10.40
2022-11-05T16:02:36.644Z,11.88
2022-11-05T16:05:23.888Z,15.77
2022-11-05T16:08:23.013Z,10.20
2022-11-05T16:11:25.948Z,11.45
2022-11-05T16:14:20.260Z,9.00
2022-11-05T16:17:21.827Z,11.88
2022-11-05T16:20:21.986Z,7.18
2022-11-05T16:23:24.014Z,7.13
2022-11-05T16:26:55.889Z,7.00
2022-11-05T16:29:35.751Z,8.30
2022-11-05T16:32:31.679Z,6.95
2022-11-05T16:35:23.906Z,8.80
2022-11-05T16:38:12.680Z,8.70
2022-11-05T16:41:00.289Z,9.48
2022-11-05T16:43:56.528Z,10.63
2022-11-05T16:46:46.060Z,7.97
2022-11-05T16:49:32.007Z,6.32
2022-11-05T16:52:18.280Z,9.30
2022-11-05T16:55:04.870Z,6.38
2022-11-05T16:57:55.437Z,8.38
2022-11-05T17:00:41.490Z,7.95
2022-11-05T17:03:27.441Z,11.15
2022-11-05T17:06:15.109Z,13.15
2022-11-05T17:09:01.203Z,10.18
2022-11-05T17:11:47.113Z,10.93
2022-11-05T17:14:33.042Z,8.50
2022-11-05T17:17:19.264Z,6.50
2022-11-05T17:20:05.747Z,6.57
2022-11-05T17:22:52.488Z,10.23
2022-11-05T17:25:40.663Z,6.03
2022-11-05T17:28:27.437Z,3.63
2022-11-05T17:31:13.706Z,7.13
2022-11-05T17:33:59.831Z,9.27
2022-11-05T17:36:45.963Z,4.50
2022-11-05T17:39:32.182Z,7.13
2022-11-05T17:42:18.228Z,5.63
2022-11-05T17:45:04.297Z,8.23
2022-11-05T17:47:50.337Z,6.20
2022-11-05T17:50:40.562Z,4.75
2022-11-05T17:53:26.412Z,6.55
2022-11-05T17:56:13.991Z,3.75
2022-11-05T17:59:00.947Z,6.18
2022-11-05T18:01:47.389Z,9.00
2022-11-05T18:04:33.770Z,6.15
2022-11-05T18:07:19.994Z,4.45
2022-11-05T18:10:06.233Z,6.38
2022-11-05T18:12:52.603Z,7.60
2022-11-05T18:15:41.548Z,7.53
2022-11-05T18:18:28.079Z,7.85
2022-11-05T18:21:13.994Z,11.35
2022-11-05T18:24:03.833Z,5.60
2022-11-05T18:26:50.457Z,6.60
2022-11-05T18:29:37.159Z,5.18
2022-11-05T18:32:23.248Z,10.00
2022-11-05T18:35:09.681Z,7.57
2022-11-05T18:37:55.670Z,11.18
2022-11-05T18:40:41.640Z,7.93
2022-11-05T18:43:27.448Z,15.38
2022-11-05T18:46:36.120Z,19.20
2022-11-05T18:49:19.853Z,30.63
2022-11-05T18:52:06.474Z,20.75
2022-11-05T18:54:52.854Z,28.83
2022-11-05T18:57:39.131Z,13.82
2022-11-05T19:00:25.230Z,8.48
2022-11-05T19:03:11.198Z,17.17
2022-11-05T19:06:03.087Z,15.77
2022-11-05T19:08:49.462Z,20.13
2022-11-05T19:11:35.726Z,20.98
2022-11-05T19:14:23.634Z,12.68
2022-11-05T19:17:10.075Z,14.13
2022-11-05T19:19:56.241Z,10.35
2022-11-05T19:22:42.169Z,11.98
2022-11-05T19:25:30.164Z,12.55
2022-11-05T19:28:16.687Z,10.80
2022-11-05T19:31:03.374Z,11.18
2022-11-05T19:33:51.198Z,7.43
2022-11-05T19:36:37.284Z,9.13
2022-11-05T19:39:23.454Z,19.48
2022-11-05T19:42:09.392Z,11.95
2022-11-05T19:44:55.291Z,7.55
2022-11-05T19:47:41.277Z,7.63
2022-11-05T19:50:27.231Z,9.43
2022-11-05T19:53:13.327Z,12.20
2022-11-05T19:56:04.067Z,12.63
2022-11-05T19:58:50.840Z,12.98
2022-11-05T20:01:37.230Z,16.45
2022-11-05T20:04:24.058Z,14.25
2022-11-05T20:07:10.162Z,16.90
2022-11-05T20:09:56.098Z,12.60
2022-11-05T20:12:42.226Z,11.90
2022-11-05T20:15:28.422Z,11.10
2022-11-05T20:18:16.066Z,12.93
2022-11-05T20:21:07.731Z,16.75
2022-11-05T20:23:56.795Z,17.50
2022-11-05T20:26:43.415Z,17.45
2022-11-05T20:29:35.290Z,22.35
2022-11-05T20:32:21.923Z,25.08
2022-11-05T20:35:08.366Z,23.05
2022-11-05T20:37:54.551Z,16.38
2022-11-05T20:40:41.862Z,12.75
2022-11-05T20:43:30.602Z,10.90
2022-11-05T20:46:19.578Z,10.68
2022-11-05T20:49:06.712Z,12.77
2022-11-05T20:51:53.656Z,13.38
2022-11-05T20:54:40.001Z,17.60
2022-11-05T20:57:26.101Z,13.57
2022-11-05T21:00:13.542Z,14.10
2022-11-05T21:03:00.374Z,15.18
2022-11-05T21:05:52.098Z,11.80
2022-11-05T21:08:39.410Z,12.48
2022-11-05T21:11:28.481Z,10.45
2022-11-05T21:14:14.347Z,10.73
2022-11-05T21:17:00.289Z,12.85
2022-11-05T21:19:46.370Z,12.48
2022-11-05T21:22:32.363Z,15.18
2022-11-05T21:25:18.510Z,11.13
2022-11-05T21:28:04.720Z,19.80
2022-11-05T21:30:50.963Z,12.00
2022-11-05T21:33:37.677Z,12.52
2022-11-05T21:36:23.771Z,13.52
2022-11-05T21:39:13.453Z,11.52
2022-11-05T21:42:00.826Z,12.10
2022-11-05T21:44:46.903Z,9.52
2022-11-05T21:47:34.390Z,10.68
2022-11-05T21:50:41.205Z,15.32
2022-11-05T21:53:45.559Z,19.35
2022-11-05T21:59:47.791Z,15.55
2022-11-05T22:02:34.187Z,13.90
2022-11-05T22:05:20.643Z,14.43
2022-11-05T22:08:07.122Z,13.32
2022-11-05T22:10:53.220Z,9.77
2022-11-05T22:13:39.141Z,9.10
2022-11-05T22:16:25.048Z,8.70
2022-11-05T22:19:11.125Z,9.35
2022-11-05T22:21:58.192Z,6.53
2022-11-05T22:24:46.937Z,12.73
2022-11-05T22:27:33.401Z,6.55
2022-11-05T22:30:20.067Z,6.55
2022-11-05T22:33:06.586Z,7.63
2022-11-05T22:35:52.521Z,6.63
2022-11-05T22:38:39.240Z,12.23
2022-11-05T22:41:25.832Z,9.40
2022-11-05T22:44:14.046Z,8.98
2022-11-05T22:47:00.121Z,7.80
2022-11-05T22:49:45.983Z,6.82
2022-11-05T22:52:32.661Z,6.85
2022-11-05T22:55:18.789Z,8.23
2022-11-05T22:58:04.636Z,8.27
2022-11-05T23:00:50.539Z,5.07
2022-11-05T23:03:36.397Z,5.95
2022-11-05T23:06:48.856Z,5.15
2022-11-05T23:09:53.847Z,3.28
2022-11-05T23:12:39.823Z,5.18
2022-11-05T23:15:45.583Z,3.75
2022-11-05T23:18:50.209Z,4.00
2022-11-05T23:21:54.686Z,5.25
2022-11-05T23:24:41.170Z,4.57
2022-11-05T23:27:32.369Z,5.07
2022-11-05T23:30:21.506Z,4.00
2022-11-05T23:33:07.612Z,4.43
2022-11-05T23:36:12.453Z,3.78
2022-11-05T23:38:58.507Z,5.90
2022-11-05T23:42:02.961Z,3.85
2022-11-05T23:48:29.539Z,3.47
2022-11-05T23:51:15.259Z,5.70
2022-11-05T23:54:01.176Z,2.83
2022-11-05T23:56:47.171Z,5.60
2022-11-05T23:59:32.944Z,3.97
